Latest Weather Observations for Eildon Fire Tower

IDV60801

Issued at 9:42 pm EST Friday 26 April 2019 (issued every 10 minutes, with the page automatically refreshed every 10 minutes)

About weather observations | Map of weather stations | Latest weather observations for VIC | Other Formats
Station Details ID: 088164 Name: EILDON FIRE TOWER Lat: -37.21 Lon: 145.84 Height: 637.0 m
Data from the previous 72 hours. | See also: Recent months at Eildon Fire Tower
Date/Time
EST
Temp
°C
App
Temp
°C
Dew
Point
°C
Rel
Hum
%
Delta-T
°C
Wind Press
QNH
hPa
Press
MSL
hPa
Rain since
9am
mm
Dir  Spd
km/h
Gust
km/h
Spd
kts
Gust
kts
26/09:30pm 5.0 -1.8 2.9 86 0.9 WSW 28 37 15 20 - - 0.0
26/09:00pm 4.7 -0.5 3.4 91 0.6 SW 20 30 11 16 - - 0.0
26/08:30pm 5.3 -0.8 2.8 84 1.1 SW 24 37 13 20 - - 0.0
26/08:00pm 5.5 -2.2 2.3 80 1.4 SW 32 44 17 24 - - 0.0
26/07:30pm 5.8 -0.7 2.8 81 1.3 WSW 26 37 14 20 - - 0.0
26/07:00pm 5.9 0.1 2.4 78 1.5 WSW 22 32 12 17 - - 0.0
26/06:30pm 6.1 1.3 2.4 77 1.6 WSW 17 22 9 12 - - 0.0
26/06:00pm 6.0 0.2 2.3 77 1.6 SW 22 33 12 18 - - 0.0
26/05:30pm 7.2 -3.3 1.3 66 2.5 WSW 46 70 25 38 - - 0.0
26/05:00pm 7.9 -1.5 -0.1 57 3.3 WSW 39 59 21 32 - - 0.0
26/04:36pm 7.6 -2.4 2.3 69 2.3 WSW 44 74 24 40 - - 0.0
26/04:34pm 7.7 -1.7 2.4 69 2.3 WSW 41 74 22 40 - - 0.0
26/04:33pm 7.9 -0.7 2.4 68 2.4 WSW 37 72 20 39 - - 0.0
26/04:30pm 8.5 0.8 2.3 65 2.7 WSW 32 50 17 27 - - 0.0
26/04:10pm 8.7 1.1 3.1 68 2.5 WSW 32 50 17 27 - - 0.0
26/04:00pm 9.1 1.1 3.7 69 2.4 WSW 35 48 19 26 - - 0.0
26/03:41pm 8.9 -0.9 2.5 64 2.8 WSW 43 65 23 35 - - 0.0
26/03:30pm 9.3 0.0 3.1 65 2.8 WSW 41 57 22 31 - - 0.0
26/03:00pm 8.3 -0.6 2.8 68 2.4 WSW 39 70 21 38 - - 0.0
26/02:31pm 10.7 0.5 1.0 51 4.2 W 44 65 24 35 - - 0.0
26/02:30pm 10.8 0.6 0.8 50 4.3 W 44 61 24 33 - - 0.0
26/02:00pm 10.2 0.1 0.5 51 4.1 WSW 43 65 23 35 - - 0.0
26/01:37pm 10.2 1.1 1.8 56 3.7 WSW 39 57 21 31 - - 0.0
26/01:30pm 10.0 1.0 2.4 59 3.4 WSW 39 57 21 31 - - 0.0
26/01:01pm 10.6 3.0 2.7 58 3.5 WSW 32 54 17 29 - - 0.0
26/01:00pm 10.4 2.8 2.7 59 3.4 WSW 32 46 17 25 - - 0.0
26/12:38pm 10.0 0.8 3.5 64 2.9 WSW 41 61 22 33 - - 0.0
26/12:30pm 9.8 0.1 3.8 66 2.7 WSW 44 61 24 33 - - 0.0
26/12:00pm 8.9 0.2 4.1 72 2.2 WSW 39 52 21 28 - - 0.0
26/11:30am 8.1 -1.4 3.8 74 1.9 WSW 43 61 23 33 - - 0.0
26/11:08am 7.4 0.4 4.0 79 1.5 WSW 30 50 16 27 - - 0.0
26/11:00am 7.3 -1.0 4.4 82 1.3 WSW 37 52 20 28 - - 0.0
26/10:36am 7.3 -0.2 6.4 94 0.4 WSW 35 63 19 34 - - 0.0
26/10:30am 7.4 -0.1 6.5 94 0.4 WSW 35 48 19 26 - - 0.0
26/10:00am 7.4 -2.2 6.3 93 0.5 WSW 46 67 25 36 - - 0.0
26/09:59am 7.4 -1.8 6.3 93 0.5 WSW 44 67 24 36 - - 0.0
26/09:52am 8.4 2.3 6.7 89 0.8 W 28 67 15 36 - - 0.0
26/09:30am 10.1 5.6 7.0 81 1.5 WNW 20 39 11 21 - - 0.0
26/09:00am 10.9 7.3 6.6 75 2.1 WNW 15 26 8 14 - - 0.0
26/08:30am 10.1 6.5 6.6 79 1.7 W 15 24 8 13 - - 0.0
26/08:00am 9.6 4.6 6.3 80 1.6 W 22 37 12 20 - - 0.0
26/07:30am 9.5 5.3 5.9 78 1.7 WNW 17 30 9 16 - - 0.0
26/07:00am 9.6 5.0 5.6 76 1.9 WNW 19 30 10 16 - - 0.0
26/06:30am 9.1 5.6 5.5 78 1.7 WNW 13 22 7 12 - - 0.0
26/06:00am 9.4 5.9 5.6 77 1.8 W 13 19 7 10 - - 0.0
26/05:30am 9.1 5.7 5.7 79 1.6 NW 13 19 7 10 - - 0.0
26/05:00am 9.2 4.5 5.9 80 1.6 W 20 28 11 15 - - 0.0
26/04:30am 9.3 5.5 5.7 78 1.7 W 15 22 8 12 - - 0.0
26/04:00am 9.5 5.0 6.0 79 1.7 W 19 28 10 15 - - 0.0
26/03:30am 9.7 5.2 5.9 77 1.8 W 19 28 10 15 - - 0.0
26/03:00am 10.2 5.6 5.8 74 2.1 W 19 28 10 15 - - 0.0
26/02:30am 10.5 6.3 5.9 73 2.2 W 17 30 9 16 - - 0.0
26/02:00am 11.0 6.3 6.2 72 2.3 WNW 20 33 11 18 - - 0.0
26/01:30am 11.7 7.6 6.4 70 2.6 WNW 17 32 9 17 - - 0.0
26/01:00am 11.8 8.4 5.9 67 2.9 NNW 13 22 7 12 - - 0.0
26/12:30am 12.1 8.7 5.9 66 3.0 WNW 13 19 7 10 - - 0.0
26/12:00am 12.5 8.4 6.1 65 3.1 WNW 17 24 9 13 - - 0.0
 
Date/Time
EST
Temp
°C
App
Temp
°C
Dew
Point
°C
Rel
Hum
%
Delta-T
°C
Wind Press
QNH
hPa
Press
MSL
hPa
Rain since
9am
mm
Dir  Spd
km/h
Gust
km/h
Spd
kts
Gust
kts
25/11:30pm 12.9 8.4 6.0 63 3.4 WNW 19 30 10 16 - - 0.0
25/11:00pm 13.5 9.0 6.1 61 3.6 WNW 19 33 10 18 - - 0.0
25/10:30pm 13.7 10.0 6.1 60 3.8 NW 15 30 8 16 - - 0.0
25/10:00pm 13.7 10.0 6.1 60 3.8 NW 15 24 8 13 - - 0.0
25/09:30pm 13.1 9.2 5.5 60 3.7 WNW 15 24 8 13 - - 0.0
25/09:00pm 13.4 9.5 5.3 58 3.9 WNW 15 24 8 13 - - 0.0
25/08:30pm 13.4 9.8 4.8 56 4.1 NW 13 20 7 11 - - 0.0
25/08:00pm 13.9 9.5 5.0 55 4.3 NNW 17 22 9 12 - - 0.0
25/07:30pm 13.9 10.7 5.0 55 4.3 NW 11 17 6 9 - - 0.0
25/07:00pm 14.5 10.9 5.0 53 4.6 NW 13 22 7 12 - - 0.0
25/06:30pm 14.7 11.1 5.0 52 4.7 NW 13 19 7 10 - - 0.0
25/06:00pm 15.1 11.0 4.5 49 5.1 WNW 15 20 8 11 - - 0.0
25/05:30pm 15.8 11.7 4.2 46 5.6 NW 15 22 8 12 - - 0.0
25/05:00pm 16.3 12.3 4.7 46 5.7 NNW 15 20 8 11 - - 0.0
25/04:30pm 17.9 15.4 4.8 42 6.5 WNW 7 11 4 6 - - 0.0
25/04:00pm 18.0 14.0 4.9 42 6.5 W 15 22 8 12 - - 0.0
25/03:30pm 17.6 13.9 4.6 42 6.4 WNW 13 20 7 11 - - 0.0
25/03:00pm 17.9 13.5 4.5 41 6.6 W 17 30 9 16 - - 0.0
25/02:30pm 17.5 13.9 5.1 44 6.2 W 13 24 7 13 - - 0.0
25/02:00pm 17.0 12.7 5.3 46 5.8 WNW 17 24 9 13 - - 0.0
25/01:30pm 16.7 12.4 5.3 47 5.7 W 17 22 9 12 - - 0.0
25/01:00pm 16.2 12.7 5.5 49 5.3 W 13 24 7 13 - - 0.0
25/12:30pm 16.0 12.2 5.6 50 5.2 W 15 22 8 12 - - 0.0
25/12:00pm 15.2 12.3 4.9 50 5.0 WNW 9 19 5 10 - - 0.0
25/11:30am 14.5 12.0 6.6 59 4.0 W 9 15 5 8 - - 0.0
25/11:00am 13.9 11.9 7.0 63 3.5 W 7 9 4 5 - - 0.0
25/10:30am 13.9 12.7 8.1 68 3.0 WSW 4 6 2 3 - - 0.0
25/10:00am 13.4 11.7 7.6 68 2.9 S 6 11 3 6 - - 0.0
25/09:30am 12.8 11.6 7.9 72 2.5 WNW 4 6 2 3 - - 0.0
25/09:00am 11.2 10.7 10.6 96 0.3 WNW 4 6 2 3 - - 0.2
25/08:30am 10.8 10.6 10.3 97 0.3 WSW 2 4 1 2 - - 0.2
25/08:00am 9.4 8.8 8.9 97 0.3 WSW 2 4 1 2 - - 0.2
25/07:30am 8.6 7.4 8.2 97 0.2 WSW 4 6 2 3 - - 0.0
25/07:00am 8.2 6.4 7.8 97 0.2 WSW 7 9 4 5 - - 0.0
25/06:30am 7.8 5.5 7.4 97 0.2 WSW 9 13 5 7 - - 0.0
25/06:00am 7.8 4.3 7.4 97 0.2 WSW 15 20 8 11 - - 0.0
25/05:30am 8.1 3.8 7.7 97 0.2 WSW 20 24 11 13 - - 0.0
25/05:00am 8.7 4.1 8.3 97 0.2 WSW 22 26 12 14 - - 0.0
25/04:30am 9.2 4.4 8.7 97 0.3 WSW 24 30 13 16 - - 0.0
25/04:00am 9.7 5.7 9.2 97 0.3 WSW 20 24 11 13 - - 0.0
25/03:30am 9.8 5.1 9.3 97 0.3 WSW 24 30 13 16 - - 0.0
25/03:00am 10.0 6.1 9.5 97 0.3 W 20 24 11 13 - - 0.0
25/02:30am 10.2 6.6 9.7 97 0.3 WSW 19 20 10 11 - - 0.0
25/02:00am 10.4 6.8 9.9 97 0.3 WSW 19 22 10 12 - - 0.0
25/01:30am 10.5 6.4 10.0 97 0.3 WSW 22 28 12 15 - - 0.0
25/01:00am 10.7 7.2 10.1 96 0.3 WSW 19 20 10 11 - - 0.0
25/12:30am 11.0 6.6 10.4 96 0.3 W 24 30 13 16 - - 0.0
25/12:00am 11.2 7.2 10.4 95 0.4 W 22 24 12 13 - - 0.0
 
Date/Time
EST
Temp
°C
App
Temp
°C
Dew
Point
°C
Rel
Hum
%
Delta-T
°C
Wind Press
QNH
hPa
Press
MSL
hPa
Rain since
9am
mm
Dir  Spd
km/h
Gust
km/h
Spd
kts
Gust
kts
24/11:30pm 11.5 7.2 10.6 94 0.5 WSW 24 26 13 14 - - 0.0
24/11:00pm 11.8 8.0 11.0 95 0.4 WSW 22 24 12 13 - - 0.0
24/10:30pm 12.9 8.6 10.8 87 1.1 W 24 28 13 15 - - 0.0
24/10:00pm 13.7 10.0 10.3 80 1.8 WSW 20 24 11 13 - - 0.0
24/09:30pm 13.9 10.4 10.9 82 1.6 WSW 20 24 11 13 - - 0.0
24/09:00pm 14.0 11.7 11.9 87 1.2 WSW 15 17 8 9 - - 0.0
24/08:30pm 14.8 12.7 12.5 86 1.3 W 15 19 8 10 - - 0.0
24/08:00pm 15.5 13.8 12.6 83 1.6 WSW 13 17 7 9 - - 0.0
24/07:30pm 16.0 14.8 12.9 82 1.8 SW 11 17 6 9 - - 0.0
24/07:00pm 17.2 16.7 12.5 74 2.7 NW 7 11 4 6 - - 0.0
24/06:30pm 17.4 16.6 12.9 75 2.6 NNW 9 13 5 7 - - 0.0
24/06:00pm 17.6 17.1 12.7 73 2.8 NW 7 11 4 6 - - 0.0
24/05:30pm 17.8 17.6 12.9 73 2.8 NW 6 9 3 5 - - 0.0
24/05:00pm 17.5 17.4 13.2 76 2.5 SSW 6 6 3 3 - - 0.0
24/04:30pm 18.1 19.2 13.4 74 2.7 CALM 0 2 0 1 - - 0.0
24/04:00pm 18.2 18.5 13.3 73 2.9 NE 4 6 2 3 - - 0.0
24/03:30pm 18.3 18.5 13.2 72 3.0 NNE 4 7 2 4 - - 0.0
24/03:00pm 18.3 18.5 13.2 72 3.0 ENE 4 7 2 4 - - 0.0
24/02:30pm 18.4 18.2 13.1 71 3.1 ENE 6 7 3 4 - - 0.0
24/02:00pm 18.6 18.8 13.2 71 3.1 SE 4 7 2 4 - - 0.0
24/01:30pm 18.4 18.8 13.7 74 2.8 SSE 4 7 2 4 - - 0.0
24/01:00pm 17.8 18.1 13.5 76 2.5 N 4 6 2 3 - - 0.0
24/12:30pm 17.1 17.3 13.0 77 2.4 N 4 7 2 4 - - 0.0
24/12:00pm 16.5 16.6 12.8 79 2.1 WNW 4 6 2 3 - - 0.0
24/11:30am 17.6 17.9 13.3 76 2.5 SW 4 9 2 5 - - 0.0
24/11:00am 17.6 17.9 13.3 76 2.5 WNW 4 6 2 3 - - 0.0
24/10:30am 16.6 17.3 13.3 81 1.9 NNW 2 6 1 3 - - 0.0
24/10:00am 16.1 16.4 13.4 84 1.6 NE 4 6 2 3 - - 0.0
24/09:30am 14.6 14.9 12.1 85 1.4 NE 2 6 1 3 - - 0.0
24/09:00am 15.4 16.0 13.2 87 1.3 NE 2 4 1 2 - - 0.0
24/08:30am 14.6 15.7 13.5 93 0.6 CALM 0 4 0 2 - - 0.0
24/08:00am 14.2 14.1 13.2 94 0.6 NE 6 7 3 4 - - 0.0
24/07:30am 13.9 14.1 13.1 95 0.5 NE 4 6 2 3 - - 0.0
24/07:00am 13.5 13.5 12.4 93 0.6 ENE 4 6 2 3 - - 0.0
24/06:30am 13.9 14.5 13.0 94 0.5 ENE 2 4 1 2 - - 0.0
24/06:00am 13.4 13.3 12.0 91 0.8 ENE 4 4 2 2 - - 0.0
24/05:30am 14.2 14.8 13.1 93 0.6 ENE 2 6 1 3 - - 0.0
24/05:00am 14.3 14.0 13.2 93 0.6 ENE 7 7 4 4 - - 0.0
24/04:30am 13.8 13.3 12.7 93 0.6 ENE 7 9 4 5 - - 0.0
24/04:00am 13.8 13.4 12.5 92 0.7 ESE 6 7 3 4 - - 0.0
24/03:30am 13.7 13.8 12.6 93 0.6 SE 4 7 2 4 - - 0.0
24/03:00am 13.8 13.4 12.9 94 0.5 S 7 9 4 5 - - 0.0
24/02:30am 13.9 14.1 13.1 95 0.5 SW 4 6 2 3 - - 0.0
24/02:00am 13.7 13.5 13.1 96 0.3 SW 6 6 3 3 - - 0.0
24/01:30am 12.0 11.5 10.9 93 0.6 SSE 4 6 2 3 - - 0.0
24/01:00am 14.1 14.2 12.8 92 0.7 SSE 4 6 2 3 - - 0.0
24/12:30am 14.2 13.7 12.6 90 0.9 SSE 7 9 4 5 - - 0.0
24/12:00am 14.3 13.8 12.7 90 0.9 SSE 7 9 4 5 - - 0.0
 
Date/Time
EST
Temp
°C
App
Temp
°C
Dew
Point
°C
Rel
Hum
%
Delta-T
°C
Wind Press
QNH
hPa
Press
MSL
hPa
Rain since
9am
mm
Dir  Spd
km/h
Gust
km/h
Spd
kts
Gust
kts
23/11:30pm 14.5 13.6 12.7 89 1.0 SSE 9 9 5 5 - - 0.0
23/11:00pm 14.5 14.0 12.0 85 1.4 SSE 6 7 3 4 - - 0.0
23/10:30pm 14.4 14.0 12.3 87 1.2 SSW 6 6 3 3 - - 0.0
23/10:00pm 15.0 15.0 12.3 84 1.5 S 4 6 2 3 - - 0.0

Other formats

Comma delimited format used in spreadsheet applications
http://www.bom.gov.au/fwo/IDV60801/IDV60801.94881.axf

JavaScript Object Notation format (JSON) in row-major order
http://www.bom.gov.au/fwo/IDV60801/IDV60801.94881.json

Data quality

Most of these data are generated automatically and are frequently updated. Quality checks on data are not normally performed. It is possible for incorrect values to appear. Refer to information at About Latest Weather Observations and please check the disclaimer before using these data.